createdAt,value
2022-10-23T00:01:46.309Z,101182.41
2022-10-23T00:04:20.143Z,101177.00
2022-10-23T00:06:49.717Z,101180.84
2022-10-23T00:09:21.406Z,101185.72
2022-10-23T00:11:51.582Z,101191.75
2022-10-23T00:14:23.114Z,101187.84
2022-10-23T00:16:51.511Z,101190.34
2022-10-23T00:19:19.713Z,101189.94
2022-10-23T00:21:47.841Z,101176.94
2022-10-23T00:24:16.072Z,101183.06
2022-10-23T00:26:44.371Z,101182.53
2022-10-23T00:29:12.667Z,101188.34
2022-10-23T00:31:40.873Z,101191.38
2022-10-23T00:34:09.283Z,101189.84
2022-10-23T00:36:37.584Z,101184.28
2022-10-23T00:39:06.105Z,101185.53
2022-10-23T00:41:34.769Z,101184.56
2022-10-23T00:44:31.412Z,101172.09
2022-10-23T00:47:02.158Z,101178.56
2022-10-23T00:49:32.502Z,101180.50
2022-10-23T00:52:07.046Z,101179.22
2022-10-23T00:54:39.455Z,101180.72
2022-10-23T00:57:12.973Z,101187.66
2022-10-23T00:59:41.466Z,101180.47
2022-10-23T01:02:10.423Z,101181.44
2022-10-23T01:04:39.346Z,101178.94
2022-10-23T01:07:31.686Z,101172.69
2022-10-23T01:10:15.606Z,101175.47
2022-10-23T01:12:47.541Z,101185.28
2022-10-23T01:15:31.922Z,101180.44
2022-10-23T01:18:17.097Z,101176.97
2022-10-23T01:21:11.775Z,101180.53
2022-10-23T01:24:19.711Z,101179.88
2022-10-23T01:27:10.032Z,101170.72
2022-10-23T01:30:06.630Z,101169.13
2022-10-23T01:33:06.906Z,101175.53
2022-10-23T01:35:52.346Z,101167.72
2022-10-23T01:38:33.244Z,101167.22
2022-10-23T01:41:15.209Z,101164.03
2022-10-23T01:43:50.537Z,101166.81
2022-10-23T01:46:19.714Z,101167.22
2022-10-23T01:48:51.709Z,101167.78
2022-10-23T01:51:24.356Z,101174.56
2022-10-23T01:53:59.976Z,101159.88
2022-10-23T01:56:32.795Z,101157.97
2022-10-23T01:59:05.569Z,101166.38
2022-10-23T02:01:42.689Z,101163.47
2022-10-23T02:04:15.488Z,101166.50
2022-10-23T02:06:43.785Z,101168.59
2022-10-23T02:09:12.079Z,101158.53
2022-10-23T02:11:52.804Z,101159.25
2022-10-23T02:14:45.849Z,101160.53
2022-10-23T02:17:43.590Z,101161.19
2022-10-23T02:20:42.123Z,101157.28
2022-10-23T02:23:18.072Z,101151.03
2022-10-23T02:26:00.190Z,101156.31
2022-10-23T02:28:44.138Z,101150.22
2022-10-23T02:31:17.455Z,101151.75
2022-10-23T02:33:47.151Z,101159.19
2022-10-23T02:36:18.450Z,101162.22
2022-10-23T02:38:47.317Z,101158.34
2022-10-23T02:41:25.280Z,101154.75
2022-10-23T02:44:23.849Z,101152.53
2022-10-23T02:46:52.027Z,101151.03
2022-10-23T02:49:24.380Z,101150.94
2022-10-23T02:52:13.297Z,101148.88
2022-10-23T02:55:06.920Z,101137.47
2022-10-23T02:58:04.193Z,101152.56
2022-10-23T03:00:35.782Z,101151.03
2022-10-23T03:03:11.756Z,101139.78
2022-10-23T03:05:41.741Z,101146.13
2022-10-23T03:08:12.033Z,101151.50
2022-10-23T03:10:41.567Z,101149.16
2022-10-23T03:13:11.275Z,101145.81
2022-10-23T03:15:43.240Z,101148.06
2022-10-23T03:18:14.981Z,101151.13
2022-10-23T03:20:47.855Z,101155.97
2022-10-23T03:23:16.530Z,101151.09
2022-10-23T03:25:44.678Z,101152.19
2022-10-23T03:28:24.178Z,101148.41
2022-10-23T03:30:52.774Z,101146.31
2022-10-23T03:33:20.965Z,101138.78
2022-10-23T03:35:49.897Z,101150.72
2022-10-23T03:38:18.484Z,101148.50
2022-10-23T03:40:47.066Z,101146.53
2022-10-23T03:43:15.565Z,101155.13
2022-10-23T03:45:43.740Z,101160.13
2022-10-23T03:48:11.917Z,101157.88
2022-10-23T03:50:40.222Z,101150.34
2022-10-23T03:53:08.287Z,101145.81
2022-10-23T03:55:36.499Z,101147.38
2022-10-23T03:58:04.594Z,101148.50
2022-10-23T04:00:32.772Z,101154.13
2022-10-23T04:03:02.617Z,101150.13
2022-10-23T04:05:30.852Z,101151.47
2022-10-23T04:08:00.052Z,101157.88
2022-10-23T04:10:28.236Z,101156.34
2022-10-23T04:12:56.991Z,101160.50
2022-10-23T04:15:25.139Z,101160.75
2022-10-23T04:17:53.247Z,101172.97
2022-10-23T04:20:21.390Z,101172.69
2022-10-23T04:22:49.500Z,101173.09
2022-10-23T04:25:17.755Z,101173.59
2022-10-23T04:27:46.564Z,101176.97
2022-10-23T04:30:14.758Z,101181.13
2022-10-23T04:32:43.162Z,101182.78
2022-10-23T04:35:11.343Z,101179.19
2022-10-23T04:37:39.536Z,101179.59
2022-10-23T04:40:09.011Z,101188.06
2022-10-23T04:42:39.209Z,101197.66
2022-10-23T04:45:07.911Z,101194.31
2022-10-23T04:47:37.083Z,101197.09
2022-10-23T04:50:06.296Z,101188.34
2022-10-23T04:52:57.527Z,101180.53
2022-10-23T04:55:51.831Z,101176.00
2022-10-23T04:58:43.351Z,101178.09
2022-10-23T05:01:12.483Z,101172.69
2022-10-23T05:03:40.840Z,101165.59
2022-10-23T05:06:09.577Z,101170.06
2022-10-23T05:08:56.167Z,101169.38
2022-10-23T05:11:44.554Z,101162.41
2022-10-23T05:14:13.422Z,101161.06
2022-10-23T05:16:57.351Z,101158.69
2022-10-23T05:19:34.192Z,101154.84
2022-10-23T05:22:05.048Z,101154.59
2022-10-23T05:24:50.564Z,101161.09
2022-10-23T05:27:22.313Z,101167.97
2022-10-23T05:29:52.337Z,101171.16
2022-10-23T05:32:27.624Z,101182.56
2022-10-23T05:34:56.896Z,101183.38
2022-10-23T05:37:28.825Z,101189.09
2022-10-23T05:40:08.327Z,101193.81
2022-10-23T05:42:40.932Z,101190.88
2022-10-23T05:45:11.900Z,101186.19
2022-10-23T05:48:11.409Z,101191.19
2022-10-23T05:51:09.957Z,101193.25
2022-10-23T05:53:53.002Z,101186.06
2022-10-23T05:56:56.810Z,101193.66
2022-10-23T05:59:32.791Z,101197.31
2022-10-23T06:02:12.731Z,101197.31
2022-10-23T06:04:51.455Z,101196.44
2022-10-23T06:07:35.753Z,101195.34
2022-10-23T06:10:07.296Z,101203.09
2022-10-23T06:12:40.424Z,101205.63
2022-10-23T06:15:11.380Z,101197.13
2022-10-23T06:18:03.485Z,101204.34
2022-10-23T06:20:37.951Z,101210.56
2022-10-23T06:23:14.248Z,101210.16
2022-10-23T06:26:03.383Z,101215.66
2022-10-23T06:28:42.556Z,101230.25
2022-10-23T06:31:13.733Z,101220.81
2022-10-23T06:33:42.255Z,101212.78
2022-10-23T06:36:11.632Z,101216.38
2022-10-23T06:38:42.392Z,101220.94
2022-10-23T06:41:16.516Z,101213.72
2022-10-23T06:43:51.734Z,101208.69
2022-10-23T06:46:42.501Z,101217.41
2022-10-23T06:49:31.807Z,101218.94
2022-10-23T06:52:01.053Z,101225.84
2022-10-23T06:54:29.597Z,101220.28
2022-10-23T06:57:26.822Z,101231.31
2022-10-23T06:59:55.028Z,101234.59
2022-10-23T07:02:23.383Z,101220.75
2022-10-23T07:04:51.573Z,101228.03
2022-10-23T07:07:21.417Z,101228.47
2022-10-23T07:09:51.524Z,101225.75
2022-10-23T07:12:41.202Z,101238.53
2022-10-23T07:15:34.612Z,101244.72
2022-10-23T07:18:03.221Z,101244.81
2022-10-23T07:20:49.501Z,101243.25
2022-10-23T07:23:17.795Z,101254.59
2022-10-23T07:25:46.513Z,101254.59
2022-10-23T07:28:22.915Z,101259.28
2022-10-23T07:31:01.157Z,101255.06
2022-10-23T07:33:49.932Z,101257.91
2022-10-23T07:36:20.447Z,101249.28
2022-10-23T07:38:48.890Z,101251.06
2022-10-23T07:41:18.381Z,101252.75
2022-10-23T07:43:46.616Z,101251.38
2022-10-23T07:46:15.698Z,101253.59
2022-10-23T07:48:46.696Z,101247.97
2022-10-23T07:51:17.288Z,101242.31
2022-10-23T07:53:52.927Z,101245.09
2022-10-23T07:56:41.332Z,101252.88
2022-10-23T07:59:22.523Z,101250.19
2022-10-23T08:01:56.848Z,101235.13
2022-10-23T08:04:30.825Z,101245.84
2022-10-23T08:07:02.940Z,101253.38
2022-10-23T08:09:38.178Z,101254.16
2022-10-23T08:12:06.704Z,101250.84
2022-10-23T08:14:34.884Z,101261.28
2022-10-23T08:17:05.236Z,101259.00
2022-10-23T08:19:54.094Z,101265.69
2022-10-23T08:22:22.756Z,101271.41
2022-10-23T08:24:51.848Z,101262.13
2022-10-23T08:27:20.659Z,101259.44
2022-10-23T08:29:50.519Z,101261.72
2022-10-23T08:32:18.739Z,101274.69
2022-10-23T08:34:56.067Z,101273.88
2022-10-23T08:37:25.789Z,101267.59
2022-10-23T08:39:56.021Z,101268.25
2022-10-23T08:43:13.299Z,101274.06
2022-10-23T08:46:02.653Z,101268.59
2022-10-23T08:49:32.424Z,101260.78
2022-10-23T08:52:24.168Z,101275.88
2022-10-23T08:55:19.362Z,101274.69
2022-10-23T08:58:15.467Z,101270.22
2022-10-23T09:00:46.503Z,101263.72
2022-10-23T09:03:15.308Z,101260.81
2022-10-23T09:06:01.784Z,101264.22
2022-10-23T09:08:44.278Z,101267.69
2022-10-23T09:11:21.751Z,101259.91
2022-10-23T09:14:08.137Z,101263.19
2022-10-23T09:19:46.946Z,101250.00
2022-10-23T09:22:15.179Z,101251.19
2022-10-23T09:24:44.793Z,101259.69
2022-10-23T09:27:17.265Z,101255.41
2022-10-23T09:29:51.258Z,101256.22
2022-10-23T09:32:21.090Z,101247.53
2022-10-23T09:34:56.068Z,101245.53
2022-10-23T09:37:30.337Z,101248.66
2022-10-23T09:40:36.978Z,101243.03
2022-10-23T09:43:17.760Z,101243.56
2022-10-23T09:46:01.209Z,101240.28
2022-10-23T09:48:30.154Z,101243.69
2022-10-23T09:51:04.557Z,101250.75
2022-10-23T09:53:40.630Z,101250.56
2022-10-23T09:56:36.219Z,101259.00
2022-10-23T09:59:30.399Z,101269.00
2022-10-23T10:02:01.373Z,101279.84
2022-10-23T10:05:00.087Z,101276.25
2022-10-23T10:07:33.342Z,101268.47
2022-10-23T10:10:07.677Z,101267.63
2022-10-23T10:12:59.091Z,101269.09
2022-10-23T10:15:42.647Z,101277.28
2022-10-23T10:18:28.987Z,101272.59
2022-10-23T10:21:21.095Z,101273.53
2022-10-23T10:24:33.373Z,101278.47
2022-10-23T10:27:07.413Z,101275.97
2022-10-23T10:29:56.371Z,101263.81
2022-10-23T10:32:45.874Z,101263.59
2022-10-23T10:35:22.252Z,101257.16
2022-10-23T10:38:16.268Z,101250.69
2022-10-23T10:41:20.122Z,101250.63
2022-10-23T10:44:06.157Z,101253.53
2022-10-23T10:46:58.100Z,101250.03
2022-10-23T10:49:36.845Z,101252.78
2022-10-23T10:52:54.360Z,101249.03
2022-10-23T10:55:44.566Z,101247.81
2022-10-23T10:58:18.477Z,101243.88
2022-10-23T11:00:53.223Z,101245.75
2022-10-23T11:03:42.716Z,101235.88
2022-10-23T11:06:15.969Z,101234.31
2022-10-23T11:08:56.551Z,101234.13
2022-10-23T11:11:30.160Z,101221.31
2022-10-23T11:13:58.491Z,101227.50
2022-10-23T11:16:36.377Z,101235.06
2022-10-23T11:19:21.418Z,101221.97
2022-10-23T11:22:07.047Z,101208.78
2022-10-23T11:25:12.329Z,101206.63
2022-10-23T11:28:11.485Z,101209.72
2022-10-23T11:31:10.815Z,101200.66
2022-10-23T11:33:54.782Z,101202.72
2022-10-23T11:36:48.939Z,101190.38
2022-10-23T11:39:32.228Z,101194.91
2022-10-23T11:42:52.502Z,101192.44
2022-10-23T11:45:39.589Z,101179.03
2022-10-23T11:48:23.261Z,101188.47
2022-10-23T11:50:55.519Z,101186.22
2022-10-23T11:53:40.056Z,101190.91
2022-10-23T11:56:14.690Z,101183.69
2022-10-23T11:58:58.949Z,101177.72
2022-10-23T12:01:46.078Z,101173.84
2022-10-23T12:04:14.351Z,101175.09
2022-10-23T12:07:04.822Z,101178.03
2022-10-23T12:09:43.934Z,101172.63
2022-10-23T12:12:11.945Z,101166.66
2022-10-23T12:14:46.371Z,101170.38
2022-10-23T12:17:23.681Z,101178.41
2022-10-23T12:20:02.868Z,101169.50
2022-10-23T12:23:01.897Z,101174.91
2022-10-23T12:26:00.979Z,101177.94
2022-10-23T12:28:37.145Z,101169.41
2022-10-23T12:31:17.943Z,101167.28
2022-10-23T12:33:51.935Z,101166.63
2022-10-23T12:36:22.827Z,101156.59
2022-10-23T12:38:51.354Z,101158.72
2022-10-23T12:41:31.242Z,101155.88
2022-10-23T12:44:02.355Z,101153.34
2022-10-23T12:46:51.029Z,101144.06
2022-10-23T12:49:24.478Z,101151.22
2022-10-23T12:52:17.180Z,101139.06
2022-10-23T12:54:45.449Z,101131.91
2022-10-23T12:57:25.931Z,101133.94
2022-10-23T13:00:10.420Z,101130.66
2022-10-23T13:02:38.744Z,101122.09
2022-10-23T13:05:12.823Z,101124.19
2022-10-23T13:07:47.245Z,101115.28
2022-10-23T13:10:23.969Z,101115.69
2022-10-23T13:13:05.757Z,101112.25
2022-10-23T13:15:45.075Z,101110.44
2022-10-23T13:18:15.306Z,101107.19
2022-10-23T13:20:52.602Z,101106.41
2022-10-23T13:23:34.167Z,101105.56
2022-10-23T13:26:05.325Z,101101.88
2022-10-23T13:28:44.783Z,101102.66
2022-10-23T13:31:12.850Z,101102.13
2022-10-23T13:33:43.708Z,101105.41
2022-10-23T13:36:14.516Z,101108.06
2022-10-23T13:38:44.608Z,101100.13
2022-10-23T13:41:19.444Z,101100.97
2022-10-23T13:43:48.552Z,101102.63
2022-10-23T13:46:18.651Z,101110.63
2022-10-23T13:48:47.409Z,101108.75
2022-10-23T13:51:28.317Z,101096.41
2022-10-23T13:53:57.725Z,101105.03
2022-10-23T13:56:27.559Z,101111.22
2022-10-23T13:58:56.886Z,101110.38
2022-10-23T14:01:35.969Z,101101.78
2022-10-23T14:04:05.524Z,101110.22
2022-10-23T14:06:34.649Z,101104.88
2022-10-23T14:09:04.450Z,101093.09
2022-10-23T14:11:32.757Z,101104.38
2022-10-23T14:14:01.120Z,101103.56
2022-10-23T14:16:29.630Z,101109.91
2022-10-23T14:18:58.176Z,101104.13
2022-10-23T14:21:26.464Z,101104.50
2022-10-23T14:23:55.074Z,101109.41
2022-10-23T14:26:29.344Z,101108.38
2022-10-23T14:29:00.681Z,101114.91
2022-10-23T14:31:32.711Z,101108.31
2022-10-23T14:34:01.721Z,101104.59
2022-10-23T14:36:38.730Z,101109.03
2022-10-23T14:39:18.250Z,101104.75
2022-10-23T14:41:46.576Z,101106.19
2022-10-23T14:44:14.710Z,101106.56
2022-10-23T14:46:43.103Z,101102.00
2022-10-23T14:49:11.217Z,101104.25
2022-10-23T14:51:39.314Z,101098.09
2022-10-23T14:54:09.043Z,101103.88
2022-10-23T14:56:41.995Z,101108.31
2022-10-23T14:59:11.654Z,101109.34
2022-10-23T15:01:45.276Z,101110.56
2022-10-23T15:04:16.465Z,101105.19
2022-10-23T15:06:47.170Z,101104.94
2022-10-23T15:09:15.753Z,101102.25
2022-10-23T15:11:43.905Z,101097.28
2022-10-23T15:14:15.040Z,101100.13
2022-10-23T15:16:43.235Z,101119.22
2022-10-23T15:19:17.155Z,101108.09
2022-10-23T15:21:49.741Z,101100.22
2022-10-23T15:24:18.728Z,101111.84
2022-10-23T15:26:47.270Z,101106.00
2022-10-23T15:29:16.559Z,101101.63
2022-10-23T15:31:57.542Z,101095.22
2022-10-23T15:34:28.220Z,101103.34
2022-10-23T15:36:57.684Z,101107.16
2022-10-23T15:39:28.150Z,101094.78
2022-10-23T15:41:57.400Z,101096.19
2022-10-23T15:44:28.726Z,101095.47
2022-10-23T15:46:57.365Z,101095.38
2022-10-23T15:49:27.645Z,101096.97
2022-10-23T15:51:57.357Z,101098.50
2022-10-23T15:54:28.157Z,101095.16
2022-10-23T15:56:58.809Z,101094.56
2022-10-23T15:59:27.947Z,101105.53
2022-10-23T16:01:57.515Z,101101.47
2022-10-23T16:04:28.254Z,101107.91
2022-10-23T16:06:57.148Z,101109.03
2022-10-23T16:09:25.300Z,101106.63
2022-10-23T16:11:53.454Z,101112.00
2022-10-23T16:14:21.493Z,101114.94
2022-10-23T16:16:49.586Z,101112.50
2022-10-23T16:19:18.707Z,101116.59
2022-10-23T16:21:46.992Z,101116.00
2022-10-23T16:24:15.180Z,101113.06
2022-10-23T16:26:45.487Z,101108.66
2022-10-23T16:29:13.613Z,101114.19
2022-10-23T16:31:42.030Z,101116.25
2022-10-23T16:34:11.278Z,101120.47
2022-10-23T16:36:39.469Z,101117.03
2022-10-23T16:39:46.483Z,101112.78
2022-10-23T16:42:43.076Z,101124.56
2022-10-23T16:45:15.363Z,101130.06
2022-10-23T16:47:43.463Z,101134.09
2022-10-23T16:50:11.634Z,101135.94
2022-10-23T16:52:40.497Z,101139.28
2022-10-23T16:55:09.547Z,101140.13
2022-10-23T16:57:37.937Z,101147.97
2022-10-23T17:00:07.305Z,101151.28
2022-10-23T17:02:35.630Z,101142.19
2022-10-23T17:05:04.039Z,101151.66
2022-10-23T17:07:35.316Z,101152.50
2022-10-23T17:10:03.495Z,101153.00
2022-10-23T17:12:31.601Z,101160.78
2022-10-23T17:14:59.723Z,101165.94
2022-10-23T17:17:30.689Z,101171.06
2022-10-23T17:19:58.788Z,101171.53
2022-10-23T17:22:27.830Z,101182.63
2022-10-23T17:24:56.496Z,101181.31
2022-10-23T17:27:24.677Z,101179.50
2022-10-23T17:29:52.805Z,101180.00
2022-10-23T17:34:50.138Z,101181.97
2022-10-23T17:37:18.231Z,101176.31
2022-10-23T17:39:46.343Z,101179.47
2022-10-23T17:42:14.494Z,101183.44
2022-10-23T17:44:42.676Z,101187.91
2022-10-23T17:47:10.926Z,101190.03
2022-10-23T17:49:44.196Z,101188.38
2022-10-23T17:52:15.069Z,101189.72
2022-10-23T17:54:43.288Z,101186.53
2022-10-23T17:57:14.360Z,101187.06
2022-10-23T17:59:42.511Z,101189.03
2022-10-23T18:02:13.100Z,101186.19
2022-10-23T18:04:41.416Z,101189.84
2022-10-23T18:07:09.817Z,101184.69
2022-10-23T18:09:38.038Z,101179.41
2022-10-23T18:12:06.212Z,101179.06
2022-10-23T18:14:37.313Z,101175.22
2022-10-23T18:17:05.838Z,101184.28
2022-10-23T18:19:34.071Z,101189.44
2022-10-23T18:22:02.633Z,101188.63
2022-10-23T18:24:31.104Z,101176.66
2022-10-23T18:26:59.278Z,101180.47
2022-10-23T18:29:27.448Z,101177.66
2022-10-23T18:31:55.520Z,101179.28
2022-10-23T18:34:25.312Z,101177.47
2022-10-23T18:36:54.648Z,101179.78
2022-10-23T18:39:24.620Z,101178.72
2022-10-23T18:41:55.708Z,101179.25
2022-10-23T18:44:25.319Z,101179.06
2022-10-23T18:46:55.320Z,101170.63
2022-10-23T18:49:24.010Z,101169.41
2022-10-23T18:51:52.212Z,101178.19
2022-10-23T18:54:21.477Z,101175.69
2022-10-23T18:56:50.198Z,101179.00
2022-10-23T18:59:20.508Z,101181.66
2022-10-23T19:01:49.231Z,101172.84
2022-10-23T19:04:18.498Z,101168.19
2022-10-23T19:06:48.537Z,101173.28
2022-10-23T19:09:17.260Z,101167.06
2022-10-23T19:11:45.849Z,101167.19
2022-10-23T19:14:14.083Z,101165.94
2022-10-23T19:16:53.929Z,101164.63
2022-10-23T19:19:34.366Z,101178.16
2022-10-23T19:22:04.191Z,101183.91
2022-10-23T19:24:41.783Z,101177.38
2022-10-23T19:27:10.650Z,101184.31
2022-10-23T19:29:42.546Z,101185.59
2022-10-23T19:32:11.816Z,101197.69
2022-10-23T19:34:41.150Z,101200.38
2022-10-23T19:37:09.778Z,101202.63
2022-10-23T19:39:41.104Z,101199.84
2022-10-23T19:42:09.340Z,101204.31
2022-10-23T19:44:37.497Z,101195.41
2022-10-23T19:47:06.055Z,101195.09
2022-10-23T19:49:34.327Z,101206.19
2022-10-23T19:52:02.480Z,101204.47
2022-10-23T19:54:30.677Z,101204.63
2022-10-23T19:56:58.835Z,101199.19
2022-10-23T19:59:29.329Z,101204.09
2022-10-23T20:01:57.574Z,101205.00
2022-10-23T20:04:25.913Z,101207.25
2022-10-23T20:06:54.411Z,101214.66
2022-10-23T20:09:22.878Z,101210.66
2022-10-23T20:11:51.120Z,101213.56
2022-10-23T20:14:20.280Z,101193.56
2022-10-23T20:16:52.138Z,101193.88
2022-10-23T20:19:23.365Z,101184.13
2022-10-23T20:21:51.627Z,101189.13
2022-10-23T20:24:20.914Z,101187.16
2022-10-23T20:26:52.229Z,101185.81
2022-10-23T20:29:21.101Z,101185.13
2022-10-23T20:31:49.717Z,101192.66
2022-10-23T20:34:19.204Z,101188.84
2022-10-23T20:36:49.792Z,101198.44
2022-10-23T20:39:21.975Z,101199.00
2022-10-23T20:41:50.141Z,101204.13
2022-10-23T20:44:21.155Z,101207.72
2022-10-23T20:46:50.216Z,101206.00
2022-10-23T20:49:19.136Z,101207.22
2022-10-23T20:51:55.652Z,101209.72
2022-10-23T20:54:25.872Z,101202.63
2022-10-23T20:56:54.596Z,101199.97
2022-10-23T20:59:22.868Z,101199.75
2022-10-23T21:01:53.622Z,101196.03
2022-10-23T21:04:26.427Z,101197.81
2022-10-23T21:07:11.768Z,101206.09
2022-10-23T21:09:40.299Z,101207.91
2022-10-23T21:12:09.404Z,101211.66
2022-10-23T21:14:37.876Z,101226.03
2022-10-23T21:17:06.222Z,101231.88
2022-10-23T21:19:34.470Z,101235.78
2022-10-23T21:22:02.599Z,101235.22
2022-10-23T21:24:30.823Z,101239.66
2022-10-23T21:26:58.959Z,101228.56
2022-10-23T21:29:27.206Z,101223.56
2022-10-23T21:31:57.628Z,101233.84
2022-10-23T21:34:26.602Z,101227.88
2022-10-23T21:39:43.929Z,101214.94
2022-10-23T21:42:13.557Z,101203.84
2022-10-23T21:44:41.761Z,101186.38
2022-10-23T21:47:10.013Z,101189.03
2022-10-23T21:49:38.399Z,101187.22
2022-10-23T21:52:06.604Z,101180.13
2022-10-23T21:54:34.851Z,101174.41
2022-10-23T21:57:03.468Z,101177.47
2022-10-23T21:59:35.491Z,101179.94
2022-10-23T22:02:04.289Z,101182.56
2022-10-23T22:04:35.688Z,101183.06
2022-10-23T22:07:04.234Z,101182.47
2022-10-23T22:09:33.364Z,101188.72
2022-10-23T22:12:01.934Z,101197.59
2022-10-23T22:14:30.059Z,101195.28
2022-10-23T22:16:58.488Z,101193.34
2022-10-23T22:19:26.807Z,101190.72
2022-10-23T22:21:55.564Z,101190.00
2022-10-23T22:24:23.730Z,101183.31
2022-10-23T22:26:55.259Z,101186.66
2022-10-23T22:29:26.592Z,101180.56
2022-10-23T22:31:58.090Z,101186.38
2022-10-23T22:37:17.861Z,101169.03
2022-10-23T22:39:45.952Z,101163.75
2022-10-23T22:42:14.127Z,101165.00
2022-10-23T22:44:42.890Z,101160.28
2022-10-23T22:47:11.013Z,101150.56
2022-10-23T22:49:39.458Z,101159.19
2022-10-23T22:52:07.607Z,101160.69
2022-10-23T22:54:35.750Z,101159.50
2022-10-23T22:57:04.146Z,101146.09
2022-10-23T22:59:32.264Z,101150.81
2022-10-23T23:02:00.446Z,101147.78
2022-10-23T23:04:43.827Z,101142.25
2022-10-23T23:07:12.923Z,101139.84
2022-10-23T23:09:43.140Z,101130.03
2022-10-23T23:12:13.451Z,101129.72
2022-10-23T23:14:42.580Z,101136.81
2022-10-23T23:17:11.679Z,101142.75
2022-10-23T23:19:39.919Z,101143.75
2022-10-23T23:22:08.283Z,101148.22
2022-10-23T23:24:36.575Z,101148.38
2022-10-23T23:27:04.920Z,101144.72
2022-10-23T23:29:33.207Z,101143.06
2022-10-23T23:32:01.481Z,101150.00
2022-10-23T23:34:29.661Z,101146.28
2022-10-23T23:36:58.006Z,101136.16
2022-10-23T23:39:26.381Z,101134.63
2022-10-23T23:41:54.512Z,101134.63
2022-10-23T23:44:22.919Z,101131.28
2022-10-23T23:46:51.039Z,101140.00
2022-10-23T23:49:19.128Z,101137.13
2022-10-23T23:51:47.261Z,101136.13
2022-10-23T23:54:15.630Z,101137.38
2022-10-23T23:56:43.764Z,101129.63
2022-10-23T23:59:11.814Z,101126.84
